Time;durP1;ratioP1;P1;durP2;ratioP2;P2;SDS_P1;SDS_P2;PMS_P1;PMS_P2;Temp;Humidity;BMP_temperature;BMP_pressure;BME280_temperature;BME280_humidity;BME280_pressure;Samples;Min_cycle;Max_cycle;Signal;HPM_P1;HPM_P2
2023/07/23 00:02:05;;;;;;;0.17;0.17;;;;;;;16.32;100.00;99128.16;5030817;28;20053;-43
2023/07/23 00:04:32;;;;;;;0.20;0.20;;;;;;;16.29;100.00;99129.78;5030999;28;20045;-44
2023/07/23 00:06:59;;;;;;;0.17;0.17;;;;;;;16.26;100.00;99125.03;5030456;28;20049;-44
2023/07/23 00:09:26;;;;;;;0.75;0.30;;;;;;;16.24;100.00;99130.25;5031026;28;20990;-43
2023/07/23 00:11:53;;;;;;;1.77;0.30;;;;;;;16.20;100.00;99126.72;5013046;28;20050;-46
2023/07/23 00:14:20;;;;;;;1.10;0.32;;;;;;;16.22;100.00;99123.53;5034838;28;20080;-44
2023/07/23 00:16:48;;;;;;;3.13;0.30;;;;;;;16.19;100.00;99124.38;5030680;28;20037;-46
2023/07/23 00:19:19;;;;;;;0.68;0.50;;;;;;;16.18;100.00;99120.78;5030508;28;20076;-45
2023/07/23 00:21:47;;;;;;;0.40;0.40;;;;;;;16.12;100.00;99118.91;5030527;28;20410;-44
2023/07/23 00:24:19;;;;;;;1.45;0.55;;;;;;;16.10;100.00;99110.91;5031202;28;20041;-43
2023/07/23 00:26:47;;;;;;;2.40;0.55;;;;;;;16.09;100.00;99119.72;5012979;28;20403;-44
2023/07/23 00:29:14;;;;;;;1.10;0.45;;;;;;;16.08;100.00;99116.16;5029838;28;20058;-43
2023/07/23 00:31:41;;;;;;;1.77;0.50;;;;;;;16.02;100.00;99120.63;5030855;28;20388;-43
2023/07/23 00:34:09;;;;;;;1.60;0.40;;;;;;;15.99;100.00;99127.03;5030887;28;20060;-44
2023/07/23 00:36:36;;;;;;;1.40;0.40;;;;;;;16.01;100.00;99127.44;5030612;28;20053;-43
2023/07/23 00:39:04;;;;;;;2.42;0.57;;;;;;;15.99;100.00;99115.88;5030563;28;20140;-48
2023/07/23 00:41:32;;;;;;;1.98;0.68;;;;;;;15.98;100.00;99107.94;5030535;28;20049;-44
2023/07/23 00:43:58;;;;;;;1.27;0.40;;;;;;;15.94;100.00;99119.13;5030599;28;20111;-43
2023/07/23 00:46:25;;;;;;;0.50;0.35;;;;;;;15.92;100.00;99121.56;5030038;28;20491;-44
2023/07/23 00:48:52;;;;;;;1.77;0.55;;;;;;;15.91;100.00;99120.00;5030341;28;20041;-44
2023/07/23 00:51:20;;;;;;;0.65;0.55;;;;;;;15.91;100.00;99114.41;5030432;28;20046;-45
2023/07/23 00:53:48;;;;;;;0.95;0.47;;;;;;;15.93;100.00;99111.19;5030140;28;20128;-44
2023/07/23 00:56:16;;;;;;;2.80;0.50;;;;;;;15.93;100.00;99105.63;5030621;28;20037;-44
2023/07/23 00:58:45;;;;;;;0.93;0.50;;;;;;;15.89;100.00;99104.84;5030251;28;20427;-43
2023/07/23 01:01:12;;;;;;;3.83;0.93;;;;;;;15.87;100.00;99105.28;5033480;28;20065;-44
2023/07/23 01:03:39;;;;;;;0.43;0.40;;;;;;;15.88;100.00;99098.50;5033078;28;20380;-43
2023/07/23 01:06:07;;;;;;;2.42;0.80;;;;;;;15.88;100.00;99109.66;5034257;28;20046;-44
2023/07/23 01:08:34;;;;;;;1.40;0.80;;;;;;;15.86;100.00;99100.91;5033883;28;20108;-44
2023/07/23 01:11:02;;;;;;;4.47;1.67;;;;;;;15.86;100.00;99100.13;5034224;28;20454;-44
2023/07/23 01:13:28;;;;;;;1.17;0.60;;;;;;;15.84;100.00;99092.97;5038609;28;20057;-44
2023/07/23 01:15:57;;;;;;;3.15;0.70;;;;;;;15.83;100.00;99096.19;5034092;28;20049;-44
2023/07/23 01:18:25;;;;;;;3.97;0.70;;;;;;;15.82;100.00;99100.19;5033380;28;20049;-44
2023/07/23 01:20:52;;;;;;;1.15;0.60;;;;;;;15.83;100.00;99102.53;5027251;28;20041;-45
2023/07/23 01:23:18;;;;;;;3.70;0.90;;;;;;;15.83;100.00;99096.19;5032012;28;20049;-44
2023/07/23 01:25:45;;;;;;;2.67;0.75;;;;;;;15.82;100.00;99086.22;5033734;28;20042;-44
2023/07/23 01:28:12;;;;;;;3.85;0.65;;;;;;;15.81;100.00;99093.00;5033291;28;20041;-43
2023/07/23 01:30:38;;;;;;;2.40;0.75;;;;;;;15.79;100.00;99092.66;5034031;28;20056;-44
2023/07/23 01:33:05;;;;;;;1.10;0.70;;;;;;;15.82;100.00;99083.44;5015659;28;20072;-44
2023/07/23 01:35:32;;;;;;;1.40;0.70;;;;;;;15.82;100.00;99095.41;5016161;28;20541;-43
2023/07/23 01:37:59;;;;;;;1.50;0.70;;;;;;;15.82;100.00;99095.41;5032536;28;20049;-44
2023/07/23 01:40:26;;;;;;;3.33;0.73;;;;;;;15.82;100.00;99095.41;5033499;28;20083;-44
2023/07/23 01:42:54;;;;;;;2.72;0.95;;;;;;;15.81;100.00;99088.22;5033646;28;20492;-44
2023/07/23 01:45:20;;;;;;;2.00;0.80;;;;;;;15.81;100.00;99093.00;5033169;28;20045;-44
2023/07/23 01:47:47;;;;;;;3.03;0.90;;;;;;;15.79;100.00;99092.66;5033488;28;20077;-44
2023/07/23 01:50:14;;;;;;;1.35;0.45;;;;;;;15.78;100.00;99088.25;5032978;28;20051;-43
2023/07/23 01:52:41;;;;;;;3.03;0.63;;;;;;;15.76;100.00;99093.47;5020225;28;20042;-44
2023/07/23 01:55:08;;;;;;;1.52;0.70;;;;;;;15.77;100.00;99084.72;5032237;28;20049;-43
2023/07/23 01:57:35;;;;;;;0.50;0.50;;;;;;;15.75;100.00;99089.13;5033234;28;20108;-43
2023/07/23 02:00:03;;;;;;;1.33;0.70;;;;;;;15.73;100.00;99086.75;5033116;28;20407;-46
2023/07/23 02:02:30;;;;;;;1.35;0.50;;;;;;;15.70;100.00;99082.00;5032609;28;20065;-43
2023/07/23 02:04:57;;;;;;;0.43;0.40;;;;;;;15.71;100.00;99072.44;5033082;28;20049;-44
2023/07/23 02:07:24;;;;;;;0.90;0.40;;;;;;;15.67;100.00;99082.84;5019922;28;20380;-43
2023/07/23 02:09:51;;;;;;;3.22;0.40;;;;;;;15.66;100.00;99083.25;5033019;28;20144;-44
2023/07/23 02:12:18;;;;;;;2.17;0.43;;;;;;;15.63;100.00;99084.09;5014083;28;20041;-44
2023/07/23 02:14:45;;;;;;;2.05;0.52;;;;;;;15.59;100.00;99077.78;5037595;28;20079;-43
2023/07/23 02:17:12;;;;;;;1.42;0.40;;;;;;;15.59;100.00;99086.16;5024949;28;20491;-43
2023/07/23 02:19:38;;;;;;;2.05;0.50;;;;;;;15.59;100.00;99083.38;5032152;28;20084;-43
2023/07/23 02:22:05;;;;;;;1.30;0.40;;;;;;;15.59;100.00;99083.38;5020538;28;20156;-43
2023/07/23 02:24:32;;;;;;;1.08;0.30;;;;;;;15.58;100.00;99079.00;5032344;28;20503;-43
2023/07/23 02:26:59;;;;;;;2.38;0.30;;;;;;;15.57;100.00;99077.41;5032698;28;20049;-43
2023/07/23 02:29:26;;;;;;;0.50;0.25;;;;;;;15.53;100.00;99077.47;5031980;28;20047;-45
2023/07/23 02:31:52;;;;;;;0.88;0.30;;;;;;;15.52;100.00;99070.28;5032585;28;20067;-43
2023/07/23 02:34:19;;;;;;;1.30;0.30;;;;;;;15.51;100.00;99079.88;5032469;28;20499;-43
2023/07/23 02:36:46;;;;;;;1.60;0.77;;;;;;;15.52;100.00;99086.22;5032371;28;20057;-43
2023/07/23 02:39:13;;;;;;;2.00;0.47;;;;;;;15.49;100.00;99082.28;5032101;28;20130;-44
2023/07/23 02:41:40;;;;;;;2.08;0.30;;;;;;;15.50;100.00;99085.88;5032813;28;20045;-45
2023/07/23 02:44:07;;;;;;;1.48;0.32;;;;;;;15.51;100.00;99084.66;5031901;28;20038;-43
2023/07/23 02:46:34;;;;;;;0.70;0.30;;;;;;;15.50;100.00;99083.88;5031346;28;20054;-44
2023/07/23 02:49:01;;;;;;;4.22;0.68;;;;;;;15.52;100.00;99081.44;5014201;28;20049;-43
2023/07/23 02:51:27;;;;;;;0.65;0.30;;;;;;;15.54;100.00;99078.25;5032423;28;20045;-43
2023/07/23 02:53:55;;;;;;;0.60;0.30;;;;;;;15.54;100.00;99081.06;5031890;28;20073;-43
2023/07/23 02:56:22;;;;;;;0.43;0.30;;;;;;;15.52;100.00;99081.44;5031856;28;20132;-43
2023/07/23 02:58:48;;;;;;;1.25;0.40;;;;;;;15.52;100.00;99075.06;5031605;28;20053;-46
2023/07/23 03:01:15;;;;;;;1.17;0.43;;;;;;;15.51;100.00;99079.09;4909502;23;20065;-44
2023/07/23 03:03:44;;;;;;;1.60;0.40;;;;;;;15.50;100.00;99074.72;4995165;28;20178;-44
2023/07/23 03:06:11;;;;;;;1.02;0.45;;;;;;;15.48;100.00;99079.94;4992605;28;20061;-44
2023/07/23 03:08:38;;;;;;;1.52;0.30;;;;;;;15.47;100.00;99072.75;4992598;28;20042;-44
2023/07/23 03:11:06;;;;;;;0.80;0.22;;;;;;;15.47;100.00;99083.91;4992353;28;20499;-46
2023/07/23 03:13:33;;;;;;;0.88;0.20;;;;;;;15.45;100.00;99075.94;4996785;28;20403;-44
2023/07/23 03:16:00;;;;;;;1.08;0.28;;;;;;;15.45;100.00;99075.16;4992597;28;20416;-44
2023/07/23 03:18:28;;;;;;;0.50;0.43;;;;;;;15.47;100.00;99081.13;4992107;28;20061;-43
2023/07/23 03:20:55;;;;;;;2.75;0.40;;;;;;;15.44;100.00;99079.94;4987940;28;20149;-43
2023/07/23 03:23:23;;;;;;;0.70;0.38;;;;;;;15.43;100.00;99078.38;4975054;28;20062;-45
2023/07/23 03:25:50;;;;;;;1.08;0.20;;;;;;;15.42;100.00;99074.00;4992353;28;20447;-44
2023/07/23 03:28:17;;;;;;;2.38;0.20;;;;;;;15.40;100.00;99078.41;4991145;28;20133;-43
2023/07/23 03:30:44;;;;;;;1.45;0.20;;;;;;;15.42;100.00;99081.56;4992204;28;20050;-43
2023/07/23 03:33:10;;;;;;;0.40;0.30;;;;;;;15.42;100.00;99075.97;4992307;28;20034;-45
2023/07/23 03:35:37;;;;;;;0.73;0.28;;;;;;;15.43;100.00;99083.16;4992288;28;20054;-44
2023/07/23 03:38:04;;;;;;;2.60;0.43;;;;;;;15.43;100.00;99083.16;4989793;28;20054;-44
2023/07/23 03:40:31;;;;;;;0.55;0.10;;;;;;;15.44;100.00;99079.94;4991848;28;20046;-44
2023/07/23 03:42:57;;;;;;;0.10;0.10;;;;;;;15.42;100.00;99082.34;4992074;28;20765;-43
2023/07/23 03:45:24;;;;;;;0.30;0.30;;;;;;;15.40;100.00;99081.19;4992167;28;20054;-44
2023/07/23 03:47:51;;;;;;;0.90;0.17;;;;;;;15.41;100.00;99080.00;4991925;28;20049;-45
2023/07/23 03:50:17;;;;;;;0.32;0.20;;;;;;;15.39;100.00;99085.19;4991936;28;20662;-44
2023/07/23 03:52:46;;;;;;;3.55;0.38;;;;;;;15.39;100.00;99085.19;4979162;28;20054;-44
2023/07/23 03:55:13;;;;;;;0.20;0.20;;;;;;;15.39;100.00;99087.97;4991240;28;20065;-44
2023/07/23 03:57:40;;;;;;;0.50;0.20;;;;;;;15.39;100.00;99079.59;4991801;28;20177;-44
2023/07/23 04:00:08;;;;;;;0.60;0.25;;;;;;;15.38;100.00;99083.63;4991740;28;20053;-44
2023/07/23 04:02:35;;;;;;;0.52;0.10;;;;;;;15.37;100.00;99084.81;5006723;28;20140;-45
2023/07/23 04:05:02;;;;;;;1.58;0.20;;;;;;;15.34;100.00;99091.22;5011282;28;20046;-45
2023/07/23 04:07:29;;;;;;;0.40;0.20;;;;;;;15.33;100.00;99092.44;5011359;28;20046;-44
2023/07/23 04:09:56;;;;;;;1.55;0.20;;;;;;;15.35;100.00;99090.03;5010806;28;20052;-44
2023/07/23 04:12:24;;;;;;;2.50;0.13;;;;;;;15.34;100.00;99085.66;5011217;28;20065;-45
2023/07/23 04:14:51;;;;;;;0.22;0.00;;;;;;;15.33;100.00;99100.81;5016372;28;20516;-44
2023/07/23 04:17:22;;;;;;;1.05;0.10;;;;;;;15.34;100.00;99096.78;5011508;28;20049;-44
2023/07/23 04:19:48;;;;;;;0.80;0.13;;;;;;;15.34;100.00;99097.59;5011143;28;20439;-46
2023/07/23 04:22:15;;;;;;;1.02;0.28;;;;;;;15.37;100.00;99095.97;5011056;28;20046;-44
2023/07/23 04:24:42;;;;;;;0.55;0.20;;;;;;;15.35;100.00;99099.19;5011236;28;20104;-44
2023/07/23 04:27:09;;;;;;;0.40;0.10;;;;;;;15.35;100.00;99099.19;5010421;28;20049;-44
2023/07/23 04:29:35;;;;;;;1.00;0.20;;;;;;;15.31;100.00;99095.63;5011167;28;20554;-43
2023/07/23 04:32:02;;;;;;;0.10;0.10;;;;;;;15.30;100.00;99096.06;5011231;28;20042;-44
2023/07/23 04:34:29;;;;;;;0.03;0.03;;;;;;;15.27;100.00;99099.69;5011707;28;20573;-43
2023/07/23 04:36:56;;;;;;;0.10;0.10;;;;;;;15.27;100.00;99094.09;5015012;28;20509;-45
2023/07/23 04:39:23;;;;;;;1.35;0.00;;;;;;;15.29;100.00;99100.03;5015127;28;20084;-43
2023/07/23 04:41:50;;;;;;;0.30;0.30;;;;;;;15.30;100.00;99101.63;5014812;28;20042;-45
2023/07/23 04:44:17;;;;;;;1.95;0.00;;;;;;;15.31;100.00;99100.41;5011940;28;20045;-44
2023/07/23 04:46:44;;;;;;;0.75;0.10;;;;;;;15.32;100.00;99107.59;5004803;28;20054;-44
2023/07/23 04:49:10;;;;;;;0.98;0.17;;;;;;;15.32;100.00;99104.78;5014692;28;20029;-45
2023/07/23 04:51:37;;;;;;;2.35;0.17;;;;;;;15.33;100.00;99101.56;5014138;28;20116;-44
2023/07/23 04:54:04;;;;;;;1.30;0.30;;;;;;;15.35;100.00;99098.38;5015055;28;20050;-45
2023/07/23 04:56:31;;;;;;;0.88;0.20;;;;;;;15.35;100.00;99109.53;5014600;28;20487;-44
2023/07/23 04:58:57;;;;;;;1.23;0.10;;;;;;;15.33;100.00;99112.72;5014492;28;20046;-44
2023/07/23 05:01:24;;;;;;;2.13;0.10;;;;;;;15.33;100.00;99115.53;5013796;28;20049;-45
2023/07/23 05:03:51;;;;;;;1.35;0.10;;;;;;;15.34;100.00;99107.94;5014467;28;20042;-44
2023/07/23 05:06:18;;;;;;;0.73;0.57;;;;;;;15.37;100.00;99109.91;5014620;28;20427;-44
2023/07/23 05:08:45;;;;;;;2.85;0.15;;;;;;;15.36;100.00;99116.69;5014332;28;20129;-44
2023/07/23 05:11:12;;;;;;;4.15;0.10;;;;;;;15.37;100.00;99118.28;5014851;28;20045;-44
2023/07/23 05:13:38;;;;;;;0.55;0.10;;;;;;;15.37;100.00;99119.06;5018869;28;20100;-45
2023/07/23 05:16:06;;;;;;;0.10;0.10;;;;;;;15.38;100.00;99117.09;5013864;28;20144;-46
2023/07/23 05:18:33;;;;;;;0.57;0.20;;;;;;;15.37;100.00;99121.06;5008994;28;20054;-45
2023/07/23 05:21:02;;;;;;;2.15;0.25;;;;;;;15.37;100.00;99126.63;5002709;28;20034;-44
2023/07/23 05:23:29;;;;;;;2.90;0.10;;;;;;;15.36;100.00;99125.03;5000178;28;20046;-44
2023/07/23 05:25:56;;;;;;;0.15;0.05;;;;;;;15.35;100.00;99131.84;5014255;28;20042;-44
2023/07/23 05:28:23;;;;;;;0.70;0.10;;;;;;;15.32;100.00;99127.91;5014023;28;20049;-44
2023/07/23 05:30:57;;;;;;;0.50;0.15;;;;;;;15.33;100.00;99128.69;5014117;28;20042;-45
2023/07/23 05:33:24;;;;;;;0.20;0.00;;;;;;;15.35;100.00;99126.28;5014303;28;20068;-44
2023/07/23 05:35:51;;;;;;;1.33;0.00;;;;;;;15.38;100.00;99129.00;5006147;28;20589;-45
2023/07/23 05:38:18;;;;;;;0.55;0.10;;;;;;;15.42;100.00;99132.56;5013852;28;20615;-44
2023/07/23 05:40:53;;;;;;;0.88;0.10;;;;;;;15.43;100.00;99131.34;5013549;28;20045;-44
2023/07/23 05:43:19;;;;;;;0.60;0.00;;;;;;;15.45;100.00;99142.09;5013780;28;20511;-44
2023/07/23 05:45:46;;;;;;;0.90;0.10;;;;;;;15.47;100.00;99136.91;5013514;28;20061;-44
2023/07/23 05:48:13;;;;;;;0.00;0.00;;;;;;;15.47;100.00;99140.50;5013721;28;20050;-44
2023/07/23 05:50:40;;;;;;;0.13;0.08;;;;;;;15.48;100.00;99144.06;5013414;28;20049;-44
2023/07/23 05:53:06;;;;;;;1.98;0.10;;;;;;;15.48;100.00;99142.09;5004363;28;20039;-44
2023/07/23 05:55:33;;;;;;;0.20;0.00;;;;;;;15.49;100.00;99142.88;5010047;28;20060;-44
2023/07/23 05:58:00;;;;;;;0.00;0.00;;;;;;;15.50;100.00;99145.25;5013454;28;20061;-44
2023/07/23 06:00:26;;;;;;;1.35;0.03;;;;;;;15.47;100.00;99153.63;5013347;28;20081;-44
2023/07/23 06:02:53;;;;;;;0.17;0.00;;;;;;;15.47;100.00;99151.66;4995517;28;20054;-44
2023/07/23 06:05:21;;;;;;;0.22;0.00;;;;;;;15.50;100.00;99155.59;4993935;28;20064;-44
2023/07/23 06:07:48;;;;;;;0.20;0.10;;;;;;;15.51;100.00;99152.41;4993986;28;20511;-44
2023/07/23 06:10:15;;;;;;;1.23;0.03;;;;;;;15.53;100.00;99151.97;4992618;28;20085;-44
2023/07/23 06:12:42;;;;;;;0.32;0.10;;;;;;;15.53;100.00;99154.78;4995203;28;20054;-44
2023/07/23 06:15:09;;;;;;;3.05;0.10;;;;;;;15.54;100.00;99157.13;4995926;28;20057;-44
2023/07/23 06:17:38;;;;;;;0.17;0.00;;;;;;;15.54;100.00;99153.56;4993590;28;20134;-45
2023/07/23 06:20:06;;;;;;;0.70;0.10;;;;;;;15.57;100.00;99164.66;4993476;28;20046;-44
2023/07/23 06:22:32;;;;;;;0.10;0.00;;;;;;;15.59;100.00;99164.28;4988548;28;20105;-44
2023/07/23 06:24:59;;;;;;;0.25;0.10;;;;;;;15.63;100.00;99167.78;4993277;28;20125;-45
2023/07/23 06:27:26;;;;;;;0.50;0.10;;;;;;;15.66;100.00;99164.16;4982651;28;20062;-43
2023/07/23 06:29:54;;;;;;;0.50;0.00;;;;;;;15.70;100.00;99171.28;4983344;28;20134;-44
2023/07/23 06:32:20;;;;;;;0.00;0.00;;;;;;;15.76;100.00;99174.41;4993470;28;20129;-44
2023/07/23 06:34:47;;;;;;;0.88;0.00;;;;;;;15.78;100.00;99171.97;4993153;28;20500;-44
2023/07/23 06:37:14;;;;;;;0.65;0.00;;;;;;;15.79;100.00;99179.16;4993187;28;20054;-44
2023/07/23 06:39:41;;;;;;;0.03;0.00;;;;;;;15.77;100.00;99176.78;4993004;28;20567;-45
2023/07/23 06:42:08;;;;;;;0.80;0.00;;;;;;;15.78;100.00;99188.72;4992993;28;20157;-44
2023/07/23 06:44:35;;;;;;;0.10;0.10;;;;;;;15.79;100.00;99185.53;4992206;28;20046;-45
2023/07/23 06:47:01;;;;;;;0.17;0.10;;;;;;;15.82;100.00;99186.69;4991382;28;20141;-44
2023/07/23 06:49:28;;;;;;;0.28;0.10;;;;;;;15.86;100.00;99192.25;4992455;28;20475;-44
2023/07/23 06:51:56;;;;;;;0.90;0.10;;;;;;;15.89;100.00;99183.81;4992536;28;20050;-44
2023/07/23 06:54:26;;;;;;;1.45;0.28;;;;;;;15.91;100.00;99192.56;4979025;28;20069;-44
2023/07/23 06:56:53;;;;;;;0.32;0.10;;;;;;;15.94;100.00;99191.69;4992284;28;20444;-44
2023/07/23 06:59:24;;;;;;;0.40;0.40;;;;;;;15.97;100.00;99190.88;4991785;28;20057;-45
2023/07/23 07:01:56;;;;;;;0.10;0.10;;;;;;;15.99;100.00;99193.25;4991703;28;20093;-44
2023/07/23 07:04:26;;;;;;;0.28;0.15;;;;;;;16.02;100.00;99198.78;4992487;28;20038;-44
2023/07/23 07:06:55;;;;;;;0.77;0.20;;;;;;;16.08;100.00;99205.47;4974955;28;20108;-44
2023/07/23 07:09:22;;;;;;;1.52;0.20;;;;;;;16.13;100.00;99210.59;5001112;28;20480;-44
2023/07/23 07:11:51;;;;;;;0.00;0.00;;;;;;;16.14;100.00;99203.03;5004016;28;20571;-46
2023/07/23 07:14:17;;;;;;;0.95;0.10;;;;;;;16.14;100.00;99212.19;4996474;28;20574;-44
2023/07/23 07:16:44;;;;;;;0.30;0.20;;;;;;;16.16;100.00;99209.75;4999438;28;20050;-44
2023/07/23 07:19:11;;;;;;;0.52;0.20;;;;;;;16.19;100.00;99213.72;4991433;28;20053;-44
2023/07/23 07:21:38;;;;;;;0.20;0.20;;;;;;;16.21;100.00;99209.28;4999707;28;20046;-44
2023/07/23 07:24:06;;;;;;;1.00;0.20;;;;;;;16.22;100.00;99219.25;4992879;28;20042;-44
2023/07/23 07:26:33;;;;;;;0.95;0.20;;;;;;;16.22;100.00;99219.25;5000624;28;20074;-45
2023/07/23 07:29:00;;;;;;;0.15;0.15;;;;;;;16.23;100.00;99225.66;4974444;28;20077;-44
2023/07/23 07:31:29;;;;;;;0.35;0.35;;;;;;;16.24;100.00;99216.03;4992317;28;20046;-44
2023/07/23 07:33:57;;;;;;;0.60;0.60;;;;;;;16.27;100.00;99227.16;4990929;28;20152;-44
2023/07/23 07:36:24;;;;;;;0.20;0.20;;;;;;;16.30;100.00;99222.75;4998575;28;20054;-44
2023/07/23 07:38:51;;;;;;;0.40;0.10;;;;;;;16.31;100.00;99222.31;4995345;28;20121;-45
2023/07/23 07:41:18;;;;;;;0.43;0.30;;;;;;;16.36;100.00;99221.84;4993761;28;20056;-44
2023/07/23 07:43:45;;;;;;;2.15;0.20;;;;;;;16.44;100.00;99228.13;4988275;28;20084;-45
2023/07/23 07:46:12;;;;;;;0.32;0.30;;;;;;;16.53;100.00;99231.22;4992131;28;20049;-44
2023/07/23 07:48:39;;;;;;;0.20;0.20;;;;;;;16.59;100.00;99235.13;4974345;28;20054;-44
2023/07/23 07:51:06;;;;;;;0.82;0.30;;;;;;;16.60;100.00;99249.88;4990816;28;20436;-45
2023/07/23 07:53:35;;;;;;;0.20;0.20;;;;;;;16.54;100.00;99251.56;4984847;28;20079;-44
2023/07/23 07:56:02;;;;;;;0.35;0.10;;;;;;;16.41;100.00;99249.28;4978830;28;20132;-44
2023/07/23 07:58:30;;;;;;;2.47;0.10;;;;;;;16.37;100.00;99256.94;4991805;28;20050;-48
2023/07/23 08:00:58;;;;;;;0.57;0.10;;;;;;;16.37;100.00;99240.19;4978846;28;20058;-44
2023/07/23 08:03:28;;;;;;;3.40;0.20;;;;;;;16.38;100.00;99247.38;4990737;28;20053;-45
2023/07/23 08:05:59;;;;;;;0.20;0.20;;;;;;;16.47;100.00;99248.84;4992036;28;20055;-44
2023/07/23 08:08:29;;;;;;;2.55;0.22;;;;;;;16.57;100.00;99257.09;4991526;28;20050;-45
2023/07/23 08:10:58;;;;;;;3.03;0.55;;;;;;;16.63;100.00;99258.19;5007988;28;20042;-44
2023/07/23 08:13:25;;;;;;;1.35;1.00;;;;;;;16.65;100.00;99264.19;5002857;28;20045;-46
2023/07/23 08:15:53;;;;;;;0.30;0.17;;;;;;;16.64;100.00;99259.00;4998189;28;20488;-45
2023/07/23 08:18:22;;;;;;;3.60;0.45;;;;;;;16.66;100.00;99270.53;4997873;28;20050;-45
2023/07/23 08:20:49;;;;;;;6.05;0.32;;;;;;;16.66;100.00;99270.53;4998140;28;20054;-44
2023/07/23 08:23:16;;;;;;;4.93;0.40;;;;;;;16.67;100.00;99270.13;4997989;28;20046;-46
2023/07/23 08:25:48;;;;;;;1.48;0.20;;;;;;;16.66;100.00;99271.31;4997186;28;20053;-46
2023/07/23 08:28:25;;;;;;;10.83;1.63;;;;;;;16.67;100.00;99278.50;4997903;28;20520;-44
2023/07/23 08:30:55;;;;;;;4.43;0.55;;;;;;;16.69;100.00;99280.88;4999796;28;20097;-44
2023/07/23 08:33:28;;;;;;;2.85;0.30;;;;;;;16.69;100.00;99280.88;4998130;28;20046;-45
2023/07/23 08:35:57;;;;;;;2.25;0.40;;;;;;;16.70;100.00;99282.47;4997727;28;20531;-45
2023/07/23 08:38:25;;;;;;;0.80;0.28;;;;;;;16.67;100.00;99291.69;4997889;28;20047;-46
2023/07/23 08:41:03;;;;;;;2.95;0.30;;;;;;;16.65;100.00;99296.91;4997690;28;20096;-45
2023/07/23 08:43:30;;;;;;;3.70;0.40;;;;;;;16.68;100.00;99285.66;4980048;28;20042;-45
2023/07/23 08:46:12;;;;;;;5.47;0.47;;;;;;;16.67;100.00;99289.69;4998115;28;20050;-45
2023/07/23 08:48:54;;;;;;;2.35;0.55;;;;;;;16.70;100.00;99290.84;4997945;28;20053;-45
2023/07/23 08:51:33;;;;;;;;;;;;;;;16.69;100.00;99304.03;4998139;28;20484;-44
2023/07/23 08:54:02;;;;;;;2.92;1.55;;;;;;;16.76;100.00;99305.94;4997707;28;19956;-45
2023/07/23 08:56:29;;;;;;;4.32;0.40;;;;;;;16.79;100.00;99307.88;5000467;28;20046;-46
2023/07/23 08:58:58;;;;;;;1.85;0.55;;;;;;;16.82;100.00;99307.03;4980082;28;20056;-45
2023/07/23 09:01:25;;;;;;;0.32;0.20;;;;;;;16.78;100.00;99309.88;5003366;28;20058;-44
2023/07/23 09:03:52;;;;;;;3.95;0.35;;;;;;;16.75;100.00;99312.72;5016814;28;20120;-44
2023/07/23 09:06:19;;;;;;;1.33;0.43;;;;;;;16.70;100.00;99316.78;5017187;28;20050;-44
2023/07/23 09:08:46;;;;;;;2.40;0.50;;;;;;;16.66;100.00;99318.03;5017113;28;20566;-44
2023/07/23 09:11:14;;;;;;;2.88;0.40;;;;;;;16.65;100.00;99319.25;5017688;28;20447;-44
2023/07/23 09:13:41;;;;;;;3.22;0.60;;;;;;;16.67;100.00;99322.41;5024934;28;20058;-45
2023/07/23 09:16:08;;;;;;;4.47;0.60;;;;;;;16.65;100.00;99319.25;4998134;28;20172;-43
2023/07/23 09:18:40;;;;;;;0.93;0.30;;;;;;;16.61;100.00;99324.09;4998670;28;20042;-43
2023/07/23 09:21:09;;;;;;;0.40;0.28;;;;;;;16.63;100.00;99332.84;5017613;28;20423;-46
2023/07/23 09:23:38;;;;;;;3.03;0.40;;;;;;;16.61;100.00;99335.28;5010458;28;20060;-44
2023/07/23 09:26:08;;;;;;;2.78;0.65;;;;;;;16.57;100.00;99340.94;5013786;28;20567;-44
2023/07/23 09:28:35;;;;;;;1.85;0.30;;;;;;;16.56;100.00;99342.13;4996901;28;20046;-44
2023/07/23 09:31:03;;;;;;;0.60;0.20;;;;;;;16.57;100.00;99340.13;4995823;28;20058;-44
2023/07/23 09:33:36;;;;;;;2.53;0.50;;;;;;;16.61;100.00;99344.44;5012964;28;20484;-44
2023/07/23 09:36:05;;;;;;;2.10;0.60;;;;;;;16.63;100.00;99355.19;5014282;28;20100;-45
2023/07/23 09:38:34;;;;;;;5.07;0.68;;;;;;;16.66;100.00;99343.97;5013689;28;20508;-44
2023/07/23 09:41:01;;;;;;;5.18;0.88;;;;;;;16.66;100.00;99348.78;5013314;28;20856;-44
2023/07/23 09:43:28;;;;;;;2.47;0.50;;;;;;;16.68;100.00;99354.75;5013599;28;20573;-44
2023/07/23 09:45:55;;;;;;;3.95;1.17;;;;;;;16.67;100.00;99350.38;5013636;28;20049;-45
2023/07/23 09:48:26;;;;;;;6.68;1.17;;;;;;;16.74;100.00;99355.84;5013829;28;20138;-45
2023/07/23 09:50:58;;;;;;;4.40;0.80;;;;;;;16.82;100.00;99351.75;4992083;28;20104;-44
2023/07/23 09:53:29;;;;;;;3.15;0.57;;;;;;;16.87;100.00;99363.25;5005570;28;20484;-45
2023/07/23 09:55:57;;;;;;;3.42;1.27;;;;;;;16.90;100.00;99353.22;5013239;28;20042;-44
2023/07/23 09:58:28;;;;;;;1.33;0.70;;;;;;;16.91;100.00;99366.00;5013582;28;20084;-45
2023/07/23 10:00:57;;;;;;;1.23;0.50;;;;;;;16.93;100.00;99363.56;4995669;28;20042;-44
2023/07/23 10:03:25;;;;;;;2.20;0.70;;;;;;;16.93;100.00;99363.56;5002211;28;20045;-44
2023/07/23 10:05:52;;;;;;;5.47;0.65;;;;;;;16.92;100.00;99373.16;5013219;28;20100;-44
2023/07/23 10:08:22;;;;;;;1.90;1.00;;;;;;;16.96;100.00;99368.34;5012366;28;20891;-45
2023/07/23 10:10:49;;;;;;;5.55;1.75;;;;;;;17.01;100.00;99367.84;5013338;28;20053;-45
2023/07/23 10:13:19;;;;;;;4.25;0.82;;;;;;;17.05;100.00;99376.97;5019682;28;20041;-45
2023/07/23 10:15:47;;;;;;;4.10;0.68;;;;;;;17.06;100.00;99378.56;5013555;28;20049;-44
2023/07/23 10:18:16;;;;;;;2.20;1.05;;;;;;;17.01;100.00;99388.22;5012894;28;20480;-47
2023/07/23 10:20:45;;;;;;;2.70;0.50;;;;;;;16.95;100.00;99383.50;5012778;28;20082;-45
2023/07/23 10:23:14;;;;;;;2.13;0.55;;;;;;;16.88;100.00;99387.22;5012744;28;20045;-45
2023/07/23 10:25:41;;;;;;;1.38;0.60;;;;;;;16.85;100.00;99396.44;5011916;28;20495;-44
2023/07/23 10:28:10;;;;;;;1.83;0.60;;;;;;;16.84;100.00;99389.25;5022866;28;20045;-47
2023/07/23 10:30:38;;;;;;;2.47;0.95;;;;;;;16.85;100.00;99398.44;5010904;28;20570;-44
2023/07/23 10:33:11;;;;;;;4.25;0.88;;;;;;;16.82;100.00;99402.84;5011833;28;20112;-49
2023/07/23 10:36:04;;;;;;;1.80;0.52;;;;;;;16.78;100.00;99404.13;5013057;28;20062;-44
2023/07/23 10:38:38;;;;;;;5.00;1.13;;;;;;;16.78;100.00;99412.50;4996083;28;20188;-44
2023/07/23 10:41:05;;;;;;;3.60;0.88;;;;;;;16.70;100.00;99413.81;4991822;28;20077;-45
2023/07/23 10:43:43;;;;;;;2.65;0.65;;;;;;;16.67;100.00;99417.44;5009212;28;20073;-44
2023/07/23 10:46:18;;;;;;;3.25;0.63;;;;;;;16.66;100.00;99413.03;5003013;28;20050;-45
2023/07/23 10:48:51;;;;;;;1.95;0.60;;;;;;;16.66;100.00;99435.41;5000519;28;20426;-46
2023/07/23 10:51:20;;;;;;;4.97;0.77;;;;;;;16.64;100.00;99435.84;5002500;28;20033;-45
2023/07/23 10:54:06;;;;;;;4.28;0.65;;;;;;;16.63;100.00;99433.44;5012253;28;20054;-43
2023/07/23 10:56:36;;;;;;;3.10;0.70;;;;;;;16.64;100.00;99446.22;5000586;28;20051;-45
2023/07/23 10:59:05;;;;;;;3.08;0.60;;;;;;;16.63;100.00;99439.03;5006529;28;20038;-45
2023/07/23 11:01:35;;;;;;;1.48;0.60;;;;;;;16.62;100.00;99437.47;5003910;28;20119;-44
2023/07/23 11:04:11;;;;;;;2.88;0.60;;;;;;;16.62;100.00;99455.03;5000539;28;20042;-44
2023/07/23 11:07:00;;;;;;;2.83;0.70;;;;;;;16.66;100.00;99461.34;5001861;28;20439;-41
2023/07/23 11:09:35;;;;;;;1.60;0.30;;;;;;;16.72;100.00;99458.91;5002980;28;20053;-46
2023/07/23 11:12:05;;;;;;;2.28;0.40;;;;;;;16.68;100.00;99466.53;5011123;28;20373;-44
2023/07/23 11:14:37;;;;;;;2.45;0.60;;;;;;;16.67;100.00;99471.34;5000324;28;20110;-44
2023/07/23 11:17:04;;;;;;;1.27;0.52;;;;;;;16.69;100.00;99466.13;4998935;28;20189;-44
2023/07/23 11:19:33;;;;;;;3.40;0.70;;;;;;;16.73;100.00;99478.03;4996241;28;20046;-45
2023/07/23 11:22:02;;;;;;;2.17;0.80;;;;;;;16.70;100.00;99472.50;4984880;28;20042;-44
2023/07/23 11:24:30;;;;;;;3.90;0.90;;;;;;;16.65;100.00;99475.75;5010892;28;20069;-44
2023/07/23 11:26:59;;;;;;;2.38;0.88;;;;;;;16.60;100.00;99482.56;5008137;28;20046;-44
2023/07/23 11:29:27;;;;;;;4.00;0.80;;;;;;;16.52;100.00;99478.25;5006346;28;20058;-45